Terminal Aerodrome Forecast
Issued by NWS

Home | Current Version | Previous Version | Graphics & Text | Print | Product List | Glossary On
Versions: 1 2 3 4 5 6 7 8 9 10 11 12 13 14 15 16 17 18
000
FTUS43 KMPX 250900 AAA
TAFRNH
TAF AMD
KRNH 250948Z 2510/2606 16004KT P6SM FEW050
     FM251000 16008KT 6SM -SHRA VCTS SCT035 OVC050CB
      TEMPO 2510/2511 3SM TSRA BR OVC030CB
     FM251200 18010KT P6SM SCT020 BKN040
     FM251800 20006KT P6SM BKN040
     FM260200 VRB03KT 4SM BR SCT040=

USA.gov is the U.S. government's official web portal to all federal, state and local government web resources and services.